Tampa, Florida
Traffic Map
Current Weather Conditions
Tampa, Florida
Scattered Clouds
Scattered Clouds
31°
Feels Like: 33°
Wind Chill: 31° Ceiling: Unl
Heat Index: 33° Visibility: 10mi
Dew Point: 19° Wind: 9mph
Humidity: 49% Direction: 240° (WSW)
Pressure: 30.04in Gusts: 0mph
Raw Report DataKTPA 232053Z 24008KT 10SM SCT055 SCT085 SCT340 31/19 A3004 RMK AO2 SLP170 CU BLDG ALQDS T03110194 58014
Traffic Incident Summary
Active as of:
Severity:
Category:
InformationThere was an issue retrieving the traffic information for this location. Please try a different location or try again shortly.
Advertisements